This is the latest recevied weather packets stored in our database for station/object N4OOJ-13. If no packets are shown the sender has not sent any weather packets the latest 10 day(s).
| Time | Temp. | Humidity | Pressure | Rain* | Wind** | Luminosity | Snow |
|---|---|---|---|---|---|---|---|
| 1787686232 | 35.56° C | 53% | 1017 hPa | 0 mm | - | - | - |
| 1787685631 | - | - | 1017 hPa | 0 mm | - | - | - |
| 1787685029 | - | - | 1017 hPa | 0 mm | - | - | - |
| 1787684422 | - | - | 1017 hPa | 0 mm | - | - | - |
| 1787683816 | - | - | 1017.1 hPa | 0 mm | - | - | - |
| 1787683228 | - | - | 1017.4 hPa | 0 mm | - | - | - |
| 1787682623 | 33.89° C | 59% | 1017.7 hPa | 0 mm | - | - | - |
| 1787682019 | 33.33° C | 60% | 1017.7 hPa | 0 mm | - | - | - |
| 1787681419 | 32.78° C | 63% | 1017.7 hPa | 0 mm | - | - | - |
| 1787680831 | 34.44° C | 59% | 1017.8 hPa | 0 mm | - | - | - |
| 1787680231 | 33.89° C | 61% | 1017.9 hPa | 0 mm | - | - | - |
| 1787679629 | 34.44° C | 61% | 1018.2 hPa | 0 mm | - | - | - |
| 1787679029 | 33.33° C | 63% | 1018.5 hPa | 0 mm | - | - | - |
| 1787678423 | 33.33° C | 64% | 1018.7 hPa | 0 mm | - | - | - |
| 1787677817 | 33.33° C | 64% | 1018.7 hPa | 0 mm | - | - | - |
| 1787677231 | 32.78° C | 65% | 1018.8 hPa | 0 mm | - | - | - |
| 1787676620 | 33.33° C | 65% | 1018.9 hPa | 0 mm | - | - | - |
| 1787676032 | 33.89° C | 64% | 1019 hPa | 0 mm | - | - | - |
| 1787675431 | 32.22° C | 69% | 1019 hPa | 0 mm | - | - | - |
| 1787674831 | 32.22° C | 67% | 1019.2 hPa | 0 mm | - | - | - |
| 1787674230 | 31.67° C | 70% | 1019.3 hPa | 0 mm | - | - | - |
| 1787673630 | 32.22° C | 67% | 1019.4 hPa | 0 mm | - | - | - |
| 1787673019 | 31.11° C | 70% | 1019.4 hPa | 0 mm | - | - | - |
| 1787672427 | 32.78° C | 67% | 1019.4 hPa | 0 mm | - | - | - |
| 1787671820 | 31.11° C | 72% | 1019.5 hPa | 0 mm | - | - | - |
* Rain latest hour (hover to see other rain measurements)
** Current wind speed in m/s (hover to see current wind gust speed)